sensor_id;sensor_type;location;lat;lon;timestamp;temperature;humidity
19188;DHT22;9726;52.198;8.792;2024-02-04T00:00:27;8.70;95.00
19188;DHT22;9726;52.198;8.792;2024-02-04T00:02:54;8.80;95.00
19188;DHT22;9726;52.198;8.792;2024-02-04T00:05:21;8.80;94.70
19188;DHT22;9726;52.198;8.792;2024-02-04T00:07:48;8.80;94.50
19188;DHT22;9726;52.198;8.792;2024-02-04T00:10:15;8.80;94.50
19188;DHT22;9726;52.198;8.792;2024-02-04T00:12:44;8.80;94.00
19188;DHT22;9726;52.198;8.792;2024-02-04T00:15:11;8.80;93.60
19188;DHT22;9726;52.198;8.792;2024-02-04T00:17:38;8.90;93.30
19188;DHT22;9726;52.198;8.792;2024-02-04T00:20:07;8.80;93.10
19188;DHT22;9726;52.198;8.792;2024-02-04T00:22:34;8.80;93.00
19188;DHT22;9726;52.198;8.792;2024-02-04T00:25:02;8.80;92.80
19188;DHT22;9726;52.198;8.792;2024-02-04T00:27:34;8.70;92.90
19188;DHT22;9726;52.198;8.792;2024-02-04T00:30:02;8.70;93.00
19188;DHT22;9726;52.198;8.792;2024-02-04T00:32:30;8.70;92.70
19188;DHT22;9726;52.198;8.792;2024-02-04T00:34:57;8.70;92.70
19188;DHT22;9726;52.198;8.792;2024-02-04T00:37:24;8.70;92.60
19188;DHT22;9726;52.198;8.792;2024-02-04T00:39:51;8.80;92.60
19188;DHT22;9726;52.198;8.792;2024-02-04T00:42:18;8.70;92.70
19188;DHT22;9726;52.198;8.792;2024-02-04T00:44:45;8.70;92.80
19188;DHT22;9726;52.198;8.792;2024-02-04T00:47:12;8.70;92.60
19188;DHT22;9726;52.198;8.792;2024-02-04T00:49:40;8.70;92.50
19188;DHT22;9726;52.198;8.792;2024-02-04T00:52:07;8.70;92.50
19188;DHT22;9726;52.198;8.792;2024-02-04T00:54:35;8.70;92.40
19188;DHT22;9726;52.198;8.792;2024-02-04T00:57:02;8.70;92.50
19188;DHT22;9726;52.198;8.792;2024-02-04T00:59:29;8.70;92.50
19188;DHT22;9726;52.198;8.792;2024-02-04T01:01:56;8.60;92.70
19188;DHT22;9726;52.198;8.792;2024-02-04T01:04:24;8.60;92.50
19188;DHT22;9726;52.198;8.792;2024-02-04T01:06:52;8.70;92.40
19188;DHT22;9726;52.198;8.792;2024-02-04T01:09:28;8.60;92.20
19188;DHT22;9726;52.198;8.792;2024-02-04T01:11:56;8.70;92.30
19188;DHT22;9726;52.198;8.792;2024-02-04T01:14:24;8.70;92.20
19188;DHT22;9726;52.198;8.792;2024-02-04T01:16:51;8.70;92.10
19188;DHT22;9726;52.198;8.792;2024-02-04T01:19:18;8.70;92.30
19188;DHT22;9726;52.198;8.792;2024-02-04T01:21:45;8.70;92.10
19188;DHT22;9726;52.198;8.792;2024-02-04T01:24:12;8.70;92.10
19188;DHT22;9726;52.198;8.792;2024-02-04T01:26:39;8.70;92.20
19188;DHT22;9726;52.198;8.792;2024-02-04T01:29:06;8.70;92.30
19188;DHT22;9726;52.198;8.792;2024-02-04T01:31:33;8.70;92.20
19188;DHT22;9726;52.198;8.792;2024-02-04T01:34:01;8.70;92.00
19188;DHT22;9726;52.198;8.792;2024-02-04T01:36:28;8.80;92.20
19188;DHT22;9726;52.198;8.792;2024-02-04T01:38:55;8.70;92.20
19188;DHT22;9726;52.198;8.792;2024-02-04T01:41:23;8.70;92.30
19188;DHT22;9726;52.198;8.792;2024-02-04T01:43:51;8.70;92.30
19188;DHT22;9726;52.198;8.792;2024-02-04T01:46:19;8.70;92.40
19188;DHT22;9726;52.198;8.792;2024-02-04T01:48:46;8.70;92.60
19188;DHT22;9726;52.198;8.792;2024-02-04T01:51:14;8.70;92.90
19188;DHT22;9726;52.198;8.792;2024-02-04T01:53:44;8.70;93.30
19188;DHT22;9726;52.198;8.792;2024-02-04T01:56:13;8.70;93.80
19188;DHT22;9726;52.198;8.792;2024-02-04T01:58:40;8.70;94.10
19188;DHT22;9726;52.198;8.792;2024-02-04T02:01:08;8.60;94.60
19188;DHT22;9726;52.198;8.792;2024-02-04T02:03:36;8.60;95.10
19188;DHT22;9726;52.198;8.792;2024-02-04T02:06:05;8.60;95.30
19188;DHT22;9726;52.198;8.792;2024-02-04T02:08:33;8.60;95.60
19188;DHT22;9726;52.198;8.792;2024-02-04T02:11:10;8.60;95.80
19188;DHT22;9726;52.198;8.792;2024-02-04T02:13:39;8.60;96.00
19188;DHT22;9726;52.198;8.792;2024-02-04T02:16:13;8.50;96.30
19188;DHT22;9726;52.198;8.792;2024-02-04T02:18:54;8.50;96.50
19188;DHT22;9726;52.198;8.792;2024-02-04T02:21:50;8.50;97.00
19188;DHT22;9726;52.198;8.792;2024-02-04T02:26:52;8.50;97.60
19188;DHT22;9726;52.198;8.792;2024-02-04T02:29:20;8.50;97.90
19188;DHT22;9726;52.198;8.792;2024-02-04T02:31:47;8.50;98.20
19188;DHT22;9726;52.198;8.792;2024-02-04T02:34:16;8.60;98.40
19188;DHT22;9726;52.198;8.792;2024-02-04T02:36:57;8.60;98.50
19188;DHT22;9726;52.198;8.792;2024-02-04T02:39:30;8.60;98.70
19188;DHT22;9726;52.198;8.792;2024-02-04T02:41:59;8.60;98.80
19188;DHT22;9726;52.198;8.792;2024-02-04T02:44:28;8.60;99.00
19188;DHT22;9726;52.198;8.792;2024-02-04T02:46:57;8.60;99.20
19188;DHT22;9726;52.198;8.792;2024-02-04T02:49:25;8.60;99.30
19188;DHT22;9726;52.198;8.792;2024-02-04T02:51:52;8.60;99.40
19188;DHT22;9726;52.198;8.792;2024-02-04T02:54:19;8.70;99.50
19188;DHT22;9726;52.198;8.792;2024-02-04T02:56:47;8.70;99.70
19188;DHT22;9726;52.198;8.792;2024-02-04T02:59:14;8.60;99.80
19188;DHT22;9726;52.198;8.792;2024-02-04T03:01:41;8.70;99.80
19188;DHT22;9726;52.198;8.792;2024-02-04T03:04:08;8.70;99.70
19188;DHT22;9726;52.198;8.792;2024-02-04T03:06:36;8.70;99.60
19188;DHT22;9726;52.198;8.792;2024-02-04T03:09:03;8.70;99.70
19188;DHT22;9726;52.198;8.792;2024-02-04T03:11:30;8.70;99.70
19188;DHT22;9726;52.198;8.792;2024-02-04T03:13:57;8.70;99.70
19188;DHT22;9726;52.198;8.792;2024-02-04T03:16:25;8.70;99.50
19188;DHT22;9726;52.198;8.792;2024-02-04T03:18:53;8.70;99.40
19188;DHT22;9726;52.198;8.792;2024-02-04T03:21:20;8.80;99.30
19188;DHT22;9726;52.198;8.792;2024-02-04T03:23:47;8.80;99.20
19188;DHT22;9726;52.198;8.792;2024-02-04T03:26:17;8.80;99.00
19188;DHT22;9726;52.198;8.792;2024-02-04T03:28:48;8.80;98.90
19188;DHT22;9726;52.198;8.792;2024-02-04T03:31:20;8.80;98.60
19188;DHT22;9726;52.198;8.792;2024-02-04T03:33:48;8.80;98.50
19188;DHT22;9726;52.198;8.792;2024-02-04T03:36:19;8.80;98.50
19188;DHT22;9726;52.198;8.792;2024-02-04T03:38:47;8.80;97.70
19188;DHT22;9726;52.198;8.792;2024-02-04T03:41:14;8.80;97.40
19188;DHT22;9726;52.198;8.792;2024-02-04T03:43:41;8.80;97.20
19188;DHT22;9726;52.198;8.792;2024-02-04T03:46:13;8.80;97.10
19188;DHT22;9726;52.198;8.792;2024-02-04T03:48:41;8.80;96.90
19188;DHT22;9726;52.198;8.792;2024-02-04T03:51:14;8.70;97.00
19188;DHT22;9726;52.198;8.792;2024-02-04T03:53:42;8.70;96.90
19188;DHT22;9726;52.198;8.792;2024-02-04T03:56:09;8.60;97.00
19188;DHT22;9726;52.198;8.792;2024-02-04T03:58:37;8.60;96.90
19188;DHT22;9726;52.198;8.792;2024-02-04T04:01:04;8.50;96.40
19188;DHT22;9726;52.198;8.792;2024-02-04T04:03:31;8.60;95.90
19188;DHT22;9726;52.198;8.792;2024-02-04T04:05:59;8.50;95.90
19188;DHT22;9726;52.198;8.792;2024-02-04T04:08:26;8.50;95.60
19188;DHT22;9726;52.198;8.792;2024-02-04T04:10:53;8.60;95.50
19188;DHT22;9726;52.198;8.792;2024-02-04T04:13:20;8.60;95.40
19188;DHT22;9726;52.198;8.792;2024-02-04T04:15:48;8.60;95.40
19188;DHT22;9726;52.198;8.792;2024-02-04T04:18:15;8.50;95.20
19188;DHT22;9726;52.198;8.792;2024-02-04T04:20:42;8.60;94.10
19188;DHT22;9726;52.198;8.792;2024-02-04T04:23:09;8.70;93.50
19188;DHT22;9726;52.198;8.792;2024-02-04T04:25:36;8.70;93.50
19188;DHT22;9726;52.198;8.792;2024-02-04T04:28:03;8.80;93.40
19188;DHT22;9726;52.198;8.792;2024-02-04T04:30:31;8.70;93.60
19188;DHT22;9726;52.198;8.792;2024-02-04T04:32:58;8.70;93.60
19188;DHT22;9726;52.198;8.792;2024-02-04T04:35:26;8.80;93.20
19188;DHT22;9726;52.198;8.792;2024-02-04T04:37:53;8.80;93.00
19188;DHT22;9726;52.198;8.792;2024-02-04T04:40:20;8.80;93.10
19188;DHT22;9726;52.198;8.792;2024-02-04T04:42:47;8.80;93.00
19188;DHT22;9726;52.198;8.792;2024-02-04T04:45:14;8.80;92.90
19188;DHT22;9726;52.198;8.792;2024-02-04T04:47:42;8.80;92.90
19188;DHT22;9726;52.198;8.792;2024-02-04T04:50:09;8.90;92.70
19188;DHT22;9726;52.198;8.792;2024-02-04T04:52:36;8.90;92.60
19188;DHT22;9726;52.198;8.792;2024-02-04T04:55:03;8.90;92.00
19188;DHT22;9726;52.198;8.792;2024-02-04T04:57:31;9.00;90.70
19188;DHT22;9726;52.198;8.792;2024-02-04T04:59:58;9.10;89.40
19188;DHT22;9726;52.198;8.792;2024-02-04T05:02:27;9.10;89.20
19188;DHT22;9726;52.198;8.792;2024-02-04T05:04:54;9.20;87.60
19188;DHT22;9726;52.198;8.792;2024-02-04T05:07:21;9.30;86.00
19188;DHT22;9726;52.198;8.792;2024-02-04T05:09:51;9.30;84.80
19188;DHT22;9726;52.198;8.792;2024-02-04T05:12:20;9.30;83.90
19188;DHT22;9726;52.198;8.792;2024-02-04T05:14:49;9.30;83.80
19188;DHT22;9726;52.198;8.792;2024-02-04T05:17:16;9.30;83.30
19188;DHT22;9726;52.198;8.792;2024-02-04T05:19:44;9.30;83.40
19188;DHT22;9726;52.198;8.792;2024-02-04T05:22:12;9.30;83.60
19188;DHT22;9726;52.198;8.792;2024-02-04T05:24:41;9.40;82.80
19188;DHT22;9726;52.198;8.792;2024-02-04T05:27:09;9.40;82.80
19188;DHT22;9726;52.198;8.792;2024-02-04T05:29:36;9.40;83.30
19188;DHT22;9726;52.198;8.792;2024-02-04T05:32:05;9.30;83.50
19188;DHT22;9726;52.198;8.792;2024-02-04T05:34:37;9.30;83.80
19188;DHT22;9726;52.198;8.792;2024-02-04T05:37:05;9.30;83.80
19188;DHT22;9726;52.198;8.792;2024-02-04T05:39:32;9.30;84.40
19188;DHT22;9726;52.198;8.792;2024-02-04T05:41:59;9.20;85.10
19188;DHT22;9726;52.198;8.792;2024-02-04T05:44:27;9.20;85.30
19188;DHT22;9726;52.198;8.792;2024-02-04T05:46:54;9.20;85.50
19188;DHT22;9726;52.198;8.792;2024-02-04T05:49:21;9.20;85.20
19188;DHT22;9726;52.198;8.792;2024-02-04T05:51:48;9.20;84.30
19188;DHT22;9726;52.198;8.792;2024-02-04T05:54:15;9.20;82.20
19188;DHT22;9726;52.198;8.792;2024-02-04T05:56:42;9.20;82.00
19188;DHT22;9726;52.198;8.792;2024-02-04T05:59:09;9.20;81.80
19188;DHT22;9726;52.198;8.792;2024-02-04T06:01:36;9.20;81.70
19188;DHT22;9726;52.198;8.792;2024-02-04T06:04:04;9.20;81.20
19188;DHT22;9726;52.198;8.792;2024-02-04T06:06:31;9.20;81.40
19188;DHT22;9726;52.198;8.792;2024-02-04T06:08:58;9.20;81.60
19188;DHT22;9726;52.198;8.792;2024-02-04T06:11:26;9.20;81.50
19188;DHT22;9726;52.198;8.792;2024-02-04T06:13:53;9.10;81.80
19188;DHT22;9726;52.198;8.792;2024-02-04T06:16:20;9.10;82.30
19188;DHT22;9726;52.198;8.792;2024-02-04T06:18:47;9.10;82.50
19188;DHT22;9726;52.198;8.792;2024-02-04T06:21:15;9.10;82.50
19188;DHT22;9726;52.198;8.792;2024-02-04T06:23:42;9.00;82.80
19188;DHT22;9726;52.198;8.792;2024-02-04T06:26:09;9.00;83.00
19188;DHT22;9726;52.198;8.792;2024-02-04T06:28:36;9.00;82.80
19188;DHT22;9726;52.198;8.792;2024-02-04T06:31:04;8.90;82.80
19188;DHT22;9726;52.198;8.792;2024-02-04T06:33:32;9.00;82.10
19188;DHT22;9726;52.198;8.792;2024-02-04T06:36:00;8.90;82.30
19188;DHT22;9726;52.198;8.792;2024-02-04T06:38:27;8.90;82.20
19188;DHT22;9726;52.198;8.792;2024-02-04T06:40:54;8.90;81.50
19188;DHT22;9726;52.198;8.792;2024-02-04T06:43:21;8.90;81.60
19188;DHT22;9726;52.198;8.792;2024-02-04T06:45:48;8.80;81.60
19188;DHT22;9726;52.198;8.792;2024-02-04T06:48:19;8.80;81.40
19188;DHT22;9726;52.198;8.792;2024-02-04T06:50:46;8.80;81.00
19188;DHT22;9726;52.198;8.792;2024-02-04T06:53:15;8.70;80.80
19188;DHT22;9726;52.198;8.792;2024-02-04T06:55:42;8.70;80.70
19188;DHT22;9726;52.198;8.792;2024-02-04T06:58:09;8.80;80.60
19188;DHT22;9726;52.198;8.792;2024-02-04T07:00:36;8.70;80.40
19188;DHT22;9726;52.198;8.792;2024-02-04T07:03:03;8.80;79.70
19188;DHT22;9726;52.198;8.792;2024-02-04T07:05:30;8.80;79.20
19188;DHT22;9726;52.198;8.792;2024-02-04T07:08:00;8.80;78.70
19188;DHT22;9726;52.198;8.792;2024-02-04T07:10:27;8.90;78.80
19188;DHT22;9726;52.198;8.792;2024-02-04T07:12:54;8.90;78.30
19188;DHT22;9726;52.198;8.792;2024-02-04T07:15:21;8.90;78.30
19188;DHT22;9726;52.198;8.792;2024-02-04T07:17:48;8.90;78.10
19188;DHT22;9726;52.198;8.792;2024-02-04T07:20:15;8.90;78.50
19188;DHT22;9726;52.198;8.792;2024-02-04T07:22:45;8.90;78.10
19188;DHT22;9726;52.198;8.792;2024-02-04T07:25:13;8.90;78.20
19188;DHT22;9726;52.198;8.792;2024-02-04T07:27:40;8.90;78.00
19188;DHT22;9726;52.198;8.792;2024-02-04T07:30:10;8.90;78.40
19188;DHT22;9726;52.198;8.792;2024-02-04T07:32:37;8.90;78.10
19188;DHT22;9726;52.198;8.792;2024-02-04T07:35:05;8.90;77.30
19188;DHT22;9726;52.198;8.792;2024-02-04T07:37:33;8.90;77.40
19188;DHT22;9726;52.198;8.792;2024-02-04T07:40:00;8.90;77.60
19188;DHT22;9726;52.198;8.792;2024-02-04T07:42:28;8.90;77.70
19188;DHT22;9726;52.198;8.792;2024-02-04T07:44:55;8.90;77.70
19188;DHT22;9726;52.198;8.792;2024-02-04T07:47:22;8.90;77.60
19188;DHT22;9726;52.198;8.792;2024-02-04T07:49:50;8.90;77.60
19188;DHT22;9726;52.198;8.792;2024-02-04T07:52:17;8.90;77.70
19188;DHT22;9726;52.198;8.792;2024-02-04T07:54:44;8.90;77.20
19188;DHT22;9726;52.198;8.792;2024-02-04T07:57:13;8.90;76.80
19188;DHT22;9726;52.198;8.792;2024-02-04T07:59:40;8.90;77.00
19188;DHT22;9726;52.198;8.792;2024-02-04T08:02:08;8.90;76.90
19188;DHT22;9726;52.198;8.792;2024-02-04T08:04:35;8.80;76.70
19188;DHT22;9726;52.198;8.792;2024-02-04T08:07:02;8.80;76.20
19188;DHT22;9726;52.198;8.792;2024-02-04T08:09:30;8.80;76.30
19188;DHT22;9726;52.198;8.792;2024-02-04T08:11:57;8.80;76.30
19188;DHT22;9726;52.198;8.792;2024-02-04T08:14:26;8.80;76.10
19188;DHT22;9726;52.198;8.792;2024-02-04T08:16:53;8.80;76.10
19188;DHT22;9726;52.198;8.792;2024-02-04T08:19:20;8.80;75.70
19188;DHT22;9726;52.198;8.792;2024-02-04T08:21:47;8.80;75.60
19188;DHT22;9726;52.198;8.792;2024-02-04T08:24:15;8.80;74.80
19188;DHT22;9726;52.198;8.792;2024-02-04T08:26:42;8.80;74.90
19188;DHT22;9726;52.198;8.792;2024-02-04T08:29:09;8.80;74.90
19188;DHT22;9726;52.198;8.792;2024-02-04T08:31:37;8.90;74.60
19188;DHT22;9726;52.198;8.792;2024-02-04T08:34:04;8.90;75.00
19188;DHT22;9726;52.198;8.792;2024-02-04T08:36:32;8.90;74.80
19188;DHT22;9726;52.198;8.792;2024-02-04T08:38:59;8.90;74.40
19188;DHT22;9726;52.198;8.792;2024-02-04T08:41:26;8.90;74.60
19188;DHT22;9726;52.198;8.792;2024-02-04T08:43:53;8.90;73.90
19188;DHT22;9726;52.198;8.792;2024-02-04T08:46:21;8.90;73.70
19188;DHT22;9726;52.198;8.792;2024-02-04T08:48:48;8.90;73.50
19188;DHT22;9726;52.198;8.792;2024-02-04T08:51:15;8.90;73.40
19188;DHT22;9726;52.198;8.792;2024-02-04T08:53:45;8.90;73.10
19188;DHT22;9726;52.198;8.792;2024-02-04T08:56:12;8.90;72.70
19188;DHT22;9726;52.198;8.792;2024-02-04T08:58:39;8.90;72.50
19188;DHT22;9726;52.198;8.792;2024-02-04T09:01:06;8.90;72.40
19188;DHT22;9726;52.198;8.792;2024-02-04T09:03:33;8.90;72.30
19188;DHT22;9726;52.198;8.792;2024-02-04T09:06:01;8.90;72.60
19188;DHT22;9726;52.198;8.792;2024-02-04T09:08:28;8.90;71.70
19188;DHT22;9726;52.198;8.792;2024-02-04T09:10:56;8.90;72.20
19188;DHT22;9726;52.198;8.792;2024-02-04T09:13:24;9.00;72.20
19188;DHT22;9726;52.198;8.792;2024-02-04T09:15:51;8.90;72.00
19188;DHT22;9726;52.198;8.792;2024-02-04T09:18:19;8.90;72.00
19188;DHT22;9726;52.198;8.792;2024-02-04T09:20:47;8.90;71.40
19188;DHT22;9726;52.198;8.792;2024-02-04T09:23:15;9.00;72.00
19188;DHT22;9726;52.198;8.792;2024-02-04T09:25:42;9.00;71.80
19188;DHT22;9726;52.198;8.792;2024-02-04T09:28:09;9.10;72.00
19188;DHT22;9726;52.198;8.792;2024-02-04T09:30:37;9.10;71.80
19188;DHT22;9726;52.198;8.792;2024-02-04T09:33:04;9.10;71.80
19188;DHT22;9726;52.198;8.792;2024-02-04T09:35:32;9.10;71.60
19188;DHT22;9726;52.198;8.792;2024-02-04T09:37:59;9.10;71.40
19188;DHT22;9726;52.198;8.792;2024-02-04T09:40:26;9.10;71.40
19188;DHT22;9726;52.198;8.792;2024-02-04T09:42:56;9.20;71.20
19188;DHT22;9726;52.198;8.792;2024-02-04T09:45:28;9.20;71.40
19188;DHT22;9726;52.198;8.792;2024-02-04T09:47:58;9.30;71.20
19188;DHT22;9726;52.198;8.792;2024-02-04T09:50:27;9.30;71.30
19188;DHT22;9726;52.198;8.792;2024-02-04T09:52:58;9.30;70.80
19188;DHT22;9726;52.198;8.792;2024-02-04T09:55:29;9.40;70.90
19188;DHT22;9726;52.198;8.792;2024-02-04T09:57:56;9.40;70.40
19188;DHT22;9726;52.198;8.792;2024-02-04T10:00:27;9.50;70.40
19188;DHT22;9726;52.198;8.792;2024-02-04T10:02:56;9.50;70.10
19188;DHT22;9726;52.198;8.792;2024-02-04T10:05:24;9.60;69.60
19188;DHT22;9726;52.198;8.792;2024-02-04T10:07:52;9.60;69.50
19188;DHT22;9726;52.198;8.792;2024-02-04T10:10:19;9.60;69.30
19188;DHT22;9726;52.198;8.792;2024-02-04T10:12:47;9.60;69.30
19188;DHT22;9726;52.198;8.792;2024-02-04T10:15:14;9.60;69.30
19188;DHT22;9726;52.198;8.792;2024-02-04T10:17:45;9.60;69.30
19188;DHT22;9726;52.198;8.792;2024-02-04T10:20:15;9.70;69.40
19188;DHT22;9726;52.198;8.792;2024-02-04T10:22:46;9.70;68.90
19188;DHT22;9726;52.198;8.792;2024-02-04T10:25:14;9.70;68.90
19188;DHT22;9726;52.198;8.792;2024-02-04T10:27:45;9.80;68.80
19188;DHT22;9726;52.198;8.792;2024-02-04T10:30:14;9.80;68.90
19188;DHT22;9726;52.198;8.792;2024-02-04T10:32:42;9.80;68.30
19188;DHT22;9726;52.198;8.792;2024-02-04T10:35:09;9.80;68.50
19188;DHT22;9726;52.198;8.792;2024-02-04T10:37:36;9.80;68.60
19188;DHT22;9726;52.198;8.792;2024-02-04T10:40:04;9.80;69.10
19188;DHT22;9726;52.198;8.792;2024-02-04T10:42:31;9.80;68.90
19188;DHT22;9726;52.198;8.792;2024-02-04T10:44:59;9.80;68.80
19188;DHT22;9726;52.198;8.792;2024-02-04T10:47:31;9.80;68.90
19188;DHT22;9726;52.198;8.792;2024-02-04T10:50:02;9.80;69.00
19188;DHT22;9726;52.198;8.792;2024-02-04T10:52:38;9.80;69.00
19188;DHT22;9726;52.198;8.792;2024-02-04T10:55:10;9.80;69.00
19188;DHT22;9726;52.198;8.792;2024-02-04T10:57:38;9.80;69.00
19188;DHT22;9726;52.198;8.792;2024-02-04T11:00:09;9.80;68.70
19188;DHT22;9726;52.198;8.792;2024-02-04T11:02:40;9.70;69.40
19188;DHT22;9726;52.198;8.792;2024-02-04T11:05:10;9.70;69.50
19188;DHT22;9726;52.198;8.792;2024-02-04T11:07:37;9.70;70.00
19188;DHT22;9726;52.198;8.792;2024-02-04T11:10:05;9.70;69.80
19188;DHT22;9726;52.198;8.792;2024-02-04T11:12:35;9.70;69.60
19188;DHT22;9726;52.198;8.792;2024-02-04T11:15:06;9.60;69.50
19188;DHT22;9726;52.198;8.792;2024-02-04T11:23:17;9.50;69.60
19188;DHT22;9726;52.198;8.792;2024-02-04T11:25:51;9.50;69.80
19188;DHT22;9726;52.198;8.792;2024-02-04T11:28:23;9.50;69.80
19188;DHT22;9726;52.198;8.792;2024-02-04T11:30:52;9.50;69.90
19188;DHT22;9726;52.198;8.792;2024-02-04T11:33:21;9.50;70.20
19188;DHT22;9726;52.198;8.792;2024-02-04T11:36:13;9.50;70.20
19188;DHT22;9726;52.198;8.792;2024-02-04T11:38:41;9.50;70.40
19188;DHT22;9726;52.198;8.792;2024-02-04T11:41:08;9.60;70.70
19188;DHT22;9726;52.198;8.792;2024-02-04T11:43:36;9.60;70.30
19188;DHT22;9726;52.198;8.792;2024-02-04T11:46:05;9.60;70.60
19188;DHT22;9726;52.198;8.792;2024-02-04T11:48:33;9.60;70.80
19188;DHT22;9726;52.198;8.792;2024-02-04T11:51:04;9.60;71.30
19188;DHT22;9726;52.198;8.792;2024-02-04T11:53:32;9.50;71.60
19188;DHT22;9726;52.198;8.792;2024-02-04T11:56:00;9.50;72.10
19188;DHT22;9726;52.198;8.792;2024-02-04T11:58:28;9.50;72.60
19188;DHT22;9726;52.198;8.792;2024-02-04T12:00:56;9.50;72.60
19188;DHT22;9726;52.198;8.792;2024-02-04T12:03:31;9.50;72.90
19188;DHT22;9726;52.198;8.792;2024-02-04T12:05:59;9.50;73.40
19188;DHT22;9726;52.198;8.792;2024-02-04T12:08:30;9.50;73.80
19188;DHT22;9726;52.198;8.792;2024-02-04T12:11:01;9.40;74.20
19188;DHT22;9726;52.198;8.792;2024-02-04T12:13:29;9.40;74.30
19188;DHT22;9726;52.198;8.792;2024-02-04T12:15:57;9.50;74.50
19188;DHT22;9726;52.198;8.792;2024-02-04T12:18:25;9.50;74.50
19188;DHT22;9726;52.198;8.792;2024-02-04T12:20:52;9.50;74.50
19188;DHT22;9726;52.198;8.792;2024-02-04T12:23:20;9.50;74.20
19188;DHT22;9726;52.198;8.792;2024-02-04T12:25:50;9.50;73.90
19188;DHT22;9726;52.198;8.792;2024-02-04T12:28:17;9.50;74.30
19188;DHT22;9726;52.198;8.792;2024-02-04T12:30:53;9.50;74.40
19188;DHT22;9726;52.198;8.792;2024-02-04T12:33:22;9.50;74.60
19188;DHT22;9726;52.198;8.792;2024-02-04T12:35:50;9.60;74.80
19188;DHT22;9726;52.198;8.792;2024-02-04T12:38:18;9.60;74.80
19188;DHT22;9726;52.198;8.792;2024-02-04T12:40:46;9.60;74.60
19188;DHT22;9726;52.198;8.792;2024-02-04T12:43:13;9.60;74.90
19188;DHT22;9726;52.198;8.792;2024-02-04T12:45:40;9.60;75.30
19188;DHT22;9726;52.198;8.792;2024-02-04T12:48:08;9.50;75.70
19188;DHT22;9726;52.198;8.792;2024-02-04T12:50:38;9.50;76.10
19188;DHT22;9726;52.198;8.792;2024-02-04T12:53:09;9.50;76.50
19188;DHT22;9726;52.198;8.792;2024-02-04T12:55:40;9.60;76.70
19188;DHT22;9726;52.198;8.792;2024-02-04T12:58:11;9.60;76.90
19188;DHT22;9726;52.198;8.792;2024-02-04T13:00:39;9.50;77.00
19188;DHT22;9726;52.198;8.792;2024-02-04T13:03:07;9.60;77.20
19188;DHT22;9726;52.198;8.792;2024-02-04T13:05:36;9.60;77.20
19188;DHT22;9726;52.198;8.792;2024-02-04T13:08:04;9.70;77.30
19188;DHT22;9726;52.198;8.792;2024-02-04T13:10:36;9.70;77.50
19188;DHT22;9726;52.198;8.792;2024-02-04T13:13:08;9.80;77.70
19188;DHT22;9726;52.198;8.792;2024-02-04T13:15:40;9.90;77.90
19188;DHT22;9726;52.198;8.792;2024-02-04T13:18:09;10.00;77.80
19188;DHT22;9726;52.198;8.792;2024-02-04T13:20:38;10.00;78.20
19188;DHT22;9726;52.198;8.792;2024-02-04T13:23:08;10.00;78.30
19188;DHT22;9726;52.198;8.792;2024-02-04T13:25:35;10.00;78.60
19188;DHT22;9726;52.198;8.792;2024-02-04T13:28:02;10.00;78.90
19188;DHT22;9726;52.198;8.792;2024-02-04T13:30:30;10.00;79.10
19188;DHT22;9726;52.198;8.792;2024-02-04T13:32:59;10.00;79.30
19188;DHT22;9726;52.198;8.792;2024-02-04T13:35:28;10.00;79.30
19188;DHT22;9726;52.198;8.792;2024-02-04T13:37:57;10.00;79.30
19188;DHT22;9726;52.198;8.792;2024-02-04T13:40:24;10.00;79.30
19188;DHT22;9726;52.198;8.792;2024-02-04T13:42:51;10.00;79.00
19188;DHT22;9726;52.198;8.792;2024-02-04T13:45:19;10.10;78.30
19188;DHT22;9726;52.198;8.792;2024-02-04T13:47:46;10.10;78.60
19188;DHT22;9726;52.198;8.792;2024-02-04T13:50:14;10.10;78.70
19188;DHT22;9726;52.198;8.792;2024-02-04T13:52:41;10.10;78.10
19188;DHT22;9726;52.198;8.792;2024-02-04T13:55:09;10.10;77.50
19188;DHT22;9726;52.198;8.792;2024-02-04T13:57:36;10.10;77.10
19188;DHT22;9726;52.198;8.792;2024-02-04T14:00:04;10.10;76.70
19188;DHT22;9726;52.198;8.792;2024-02-04T14:02:33;10.10;76.20
19188;DHT22;9726;52.198;8.792;2024-02-04T14:05:03;10.10;76.10
19188;DHT22;9726;52.198;8.792;2024-02-04T14:07:31;10.10;75.60
19188;DHT22;9726;52.198;8.792;2024-02-04T14:09:58;10.10;75.00
19188;DHT22;9726;52.198;8.792;2024-02-04T14:12:26;10.10;74.80
19188;DHT22;9726;52.198;8.792;2024-02-04T14:14:53;10.10;74.10
19188;DHT22;9726;52.198;8.792;2024-02-04T14:17:20;10.10;73.80
19188;DHT22;9726;52.198;8.792;2024-02-04T14:19:47;10.10;73.30
19188;DHT22;9726;52.198;8.792;2024-02-04T14:22:18;10.10;72.00
19188;DHT22;9726;52.198;8.792;2024-02-04T14:24:48;10.10;71.20
19188;DHT22;9726;52.198;8.792;2024-02-04T14:27:15;10.00;69.90
19188;DHT22;9726;52.198;8.792;2024-02-04T14:29:43;10.00;69.30
19188;DHT22;9726;52.198;8.792;2024-02-04T14:32:10;10.00;69.20
19188;DHT22;9726;52.198;8.792;2024-02-04T14:34:37;9.90;68.80
19188;DHT22;9726;52.198;8.792;2024-02-04T14:37:04;9.90;68.80
19188;DHT22;9726;52.198;8.792;2024-02-04T14:39:32;9.80;68.50
19188;DHT22;9726;52.198;8.792;2024-02-04T14:42:00;9.80;68.20
19188;DHT22;9726;52.198;8.792;2024-02-04T14:44:33;9.80;68.40
19188;DHT22;9726;52.198;8.792;2024-02-04T14:47:01;9.80;68.90
19188;DHT22;9726;52.198;8.792;2024-02-04T14:49:28;9.70;69.10
19188;DHT22;9726;52.198;8.792;2024-02-04T14:51:56;9.70;69.80
19188;DHT22;9726;52.198;8.792;2024-02-04T14:54:23;9.60;71.10
19188;DHT22;9726;52.198;8.792;2024-02-04T14:56:50;9.50;72.10
19188;DHT22;9726;52.198;8.792;2024-02-04T14:59:18;9.40;73.80
19188;DHT22;9726;52.198;8.792;2024-02-04T15:01:49;9.40;74.40
19188;DHT22;9726;52.198;8.792;2024-02-04T15:04:18;9.30;74.80
19188;DHT22;9726;52.198;8.792;2024-02-04T15:06:46;9.20;75.50
19188;DHT22;9726;52.198;8.792;2024-02-04T15:09:13;9.20;76.00
19188;DHT22;9726;52.198;8.792;2024-02-04T15:11:42;9.20;76.80
19188;DHT22;9726;52.198;8.792;2024-02-04T15:14:12;9.10;78.20
19188;DHT22;9726;52.198;8.792;2024-02-04T15:16:39;9.10;78.80
19188;DHT22;9726;52.198;8.792;2024-02-04T15:19:07;9.00;79.80
19188;DHT22;9726;52.198;8.792;2024-02-04T15:21:36;8.90;80.90
19188;DHT22;9726;52.198;8.792;2024-02-04T15:24:04;8.80;81.90
19188;DHT22;9726;52.198;8.792;2024-02-04T15:26:34;8.80;82.70
19188;DHT22;9726;52.198;8.792;2024-02-04T15:29:03;8.70;83.30
19188;DHT22;9726;52.198;8.792;2024-02-04T15:31:31;8.60;84.40
19188;DHT22;9726;52.198;8.792;2024-02-04T15:34:02;8.60;84.60
19188;DHT22;9726;52.198;8.792;2024-02-04T15:36:39;8.50;85.10
19188;DHT22;9726;52.198;8.792;2024-02-04T15:39:21;8.50;85.60
19188;DHT22;9726;52.198;8.792;2024-02-04T15:41:48;8.40;86.30
19188;DHT22;9726;52.198;8.792;2024-02-04T15:44:15;8.40;87.20
19188;DHT22;9726;52.198;8.792;2024-02-04T15:46:46;8.40;88.40
19188;DHT22;9726;52.198;8.792;2024-02-04T15:49:17;8.30;88.80
19188;DHT22;9726;52.198;8.792;2024-02-04T15:51:46;8.40;88.40
19188;DHT22;9726;52.198;8.792;2024-02-04T15:54:14;8.30;89.30
19188;DHT22;9726;52.198;8.792;2024-02-04T15:56:42;8.30;89.80
19188;DHT22;9726;52.198;8.792;2024-02-04T15:59:13;8.20;90.20
19188;DHT22;9726;52.198;8.792;2024-02-04T16:01:45;8.20;91.20
19188;DHT22;9726;52.198;8.792;2024-02-04T16:04:13;8.20;91.70
19188;DHT22;9726;52.198;8.792;2024-02-04T16:06:43;8.10;92.40
19188;DHT22;9726;52.198;8.792;2024-02-04T16:09:11;8.10;92.50
19188;DHT22;9726;52.198;8.792;2024-02-04T16:11:46;8.10;92.90
19188;DHT22;9726;52.198;8.792;2024-02-04T16:14:15;8.10;93.50